Rogers City, Michigan
Current Conditions -  °F | °C
As of 12:54 AM on Sunday 26 Oct 2014 (Local Time) from KAPN Reporting Station
Clear Clear  
Wind Chill: 44°   Ceiling: Unl
Heat Index: 49°   Visibility: 10mi
Dew Point: 33°   Wind: 14mph
Humidity: 54%   Direction: 300°WNW
Pressure: 29.71"   Gusts: 25mph
Location:  45.42°N, 83.82°W
Report Text: KAPN 260454Z AUTO 30012G22KT 10SM CLR 09/01 A2971 RMK AO2 SLP063 T00940006 401720028
Loading
Personal Weather Stations






























Interactive Weather Map
Tropical Storm Tracking
New forecast layout! Learn more

10-Day Weather Forecast

Advertisements
Track Severe Weather on mobile